Paia, Hawaii
Current Conditions -  °F | °C
As of 8:54 PM on Friday 28 Nov 2014 (Local Time) from PHOG Reporting Station
Broken Clouds Broken Clouds  
Wind Chill: 71°   Ceiling: 5500
Heat Index: 71°   Visibility: 10mi
Dew Point: 64°   Wind: 10mph
Humidity: 78%   Direction: 50°NE
Pressure: 30.06"   Gusts: NA
Location:  20.89°N, 156.36°W
Report Text: PHOG 290654Z 05009KT 10SM SCT035 BKN055 22/18 A3006 RMK AO2 SLP185 T02170178 $
Loading
Personal Weather Stations






























Interactive Weather Map New forecast layout! Learn more

10-Day Weather Forecast

Advertisements
Track Severe Weather on mobile